createdAt,value
2022-11-16T00:02:24.075Z,32.60
2022-11-16T00:05:28.587Z,31.05
2022-11-16T00:08:35.613Z,32.42
2022-11-16T00:11:39.419Z,32.20
2022-11-16T00:14:42.750Z,31.07
2022-11-16T00:17:46.018Z,31.55
2022-11-16T00:20:50.245Z,30.10
2022-11-16T00:23:53.884Z,30.20
2022-11-16T00:26:58.418Z,27.57
2022-11-16T00:30:02.311Z,29.93
2022-11-16T00:33:07.100Z,29.35
2022-11-16T00:36:12.726Z,29.40
2022-11-16T00:39:17.145Z,29.92
2022-11-16T00:42:22.451Z,29.40
2022-11-16T00:45:27.019Z,27.43
2022-11-16T00:48:30.847Z,29.38
2022-11-16T00:51:35.953Z,32.00
2022-11-16T00:54:39.523Z,29.88
2022-11-16T00:57:42.902Z,27.23
2022-11-16T01:00:46.911Z,26.03
2022-11-16T01:03:50.569Z,25.77
2022-11-16T01:06:54.027Z,24.83
2022-11-16T01:10:00.550Z,26.20
2022-11-16T01:13:03.881Z,23.43
2022-11-16T01:16:07.410Z,23.47
2022-11-16T01:19:10.790Z,22.98
2022-11-16T01:22:21.528Z,22.00
2022-11-16T01:25:25.090Z,19.70
2022-11-16T01:28:30.483Z,21.20
2022-11-16T01:31:34.170Z,19.73
2022-11-16T01:34:39.522Z,21.77
2022-11-16T01:37:54.961Z,20.05
2022-11-16T01:40:58.890Z,20.42
2022-11-16T01:44:07.264Z,19.37
2022-11-16T01:47:20.135Z,18.67
2022-11-16T01:50:23.954Z,18.73
2022-11-16T01:53:28.513Z,19.02
2022-11-16T01:56:36.153Z,18.10
2022-11-16T01:59:52.382Z,18.40
2022-11-16T02:02:57.720Z,19.90
2022-11-16T02:06:17.800Z,18.42
2022-11-16T02:09:42.132Z,19.48
2022-11-16T02:13:14.207Z,18.75
2022-11-16T02:16:28.329Z,18.13
2022-11-16T02:20:09.582Z,20.50
2022-11-16T02:23:31.554Z,18.85
2022-11-16T02:26:44.116Z,18.63
2022-11-16T02:29:54.726Z,19.33
2022-11-16T02:33:04.882Z,19.77
2022-11-16T02:36:14.692Z,18.67
2022-11-16T02:39:23.265Z,17.23
2022-11-16T02:42:42.011Z,17.30
2022-11-16T02:45:49.899Z,17.20
2022-11-16T02:48:57.541Z,18.63
2022-11-16T02:52:03.101Z,18.07
2022-11-16T02:55:07.133Z,19.13
2022-11-16T02:58:13.753Z,18.20
2022-11-16T03:01:25.021Z,18.58
2022-11-16T03:04:40.914Z,17.50
2022-11-16T03:07:53.815Z,17.00
2022-11-16T03:11:22.821Z,18.45
2022-11-16T03:14:42.385Z,17.63
2022-11-16T03:17:49.997Z,17.63
2022-11-16T03:21:03.917Z,16.90
2022-11-16T03:24:07.825Z,16.73
2022-11-16T03:27:42.882Z,16.60
2022-11-16T03:31:01.046Z,18.60
2022-11-16T03:34:12.722Z,17.15
2022-11-16T03:37:16.660Z,17.43
2022-11-16T03:40:22.500Z,17.67
2022-11-16T03:43:28.582Z,16.92
2022-11-16T03:46:31.991Z,17.23
2022-11-16T03:49:35.765Z,16.77
2022-11-16T03:52:39.545Z,16.93
2022-11-16T03:55:48.472Z,17.70
2022-11-16T03:58:53.522Z,17.50
2022-11-16T04:01:56.970Z,17.90
2022-11-16T04:05:18.766Z,17.10
2022-11-16T04:09:00.481Z,16.70
2022-11-16T04:12:22.184Z,15.90
2022-11-16T04:15:44.186Z,16.05
2022-11-16T04:19:06.396Z,17.55
2022-11-16T04:22:43.289Z,16.20
2022-11-16T04:25:48.294Z,15.17
2022-11-16T04:28:53.366Z,15.97
2022-11-16T04:32:16.201Z,15.95
2022-11-16T04:35:37.994Z,15.65
2022-11-16T04:38:41.598Z,16.42
2022-11-16T04:42:03.551Z,15.37
2022-11-16T04:45:27.131Z,15.93
2022-11-16T04:48:30.870Z,16.17
2022-11-16T04:51:34.330Z,15.95
2022-11-16T04:54:38.561Z,14.63
2022-11-16T04:57:43.014Z,16.17
2022-11-16T05:00:48.275Z,16.00
2022-11-16T05:03:51.669Z,16.35
2022-11-16T05:06:55.226Z,16.55
2022-11-16T05:09:59.357Z,16.67
2022-11-16T05:13:03.799Z,16.87
2022-11-16T05:16:07.576Z,16.33
2022-11-16T05:19:29.674Z,16.83
2022-11-16T05:22:36.220Z,16.98
2022-11-16T05:25:40.154Z,16.58
2022-11-16T05:28:47.501Z,18.03
2022-11-16T05:31:50.999Z,18.30
2022-11-16T05:34:55.364Z,18.13
2022-11-16T05:38:00.290Z,17.98
2022-11-16T05:41:04.111Z,18.23
2022-11-16T05:44:07.489Z,18.80
2022-11-16T05:47:11.026Z,18.03
2022-11-16T05:50:14.805Z,20.08
2022-11-16T05:53:22.712Z,20.08
2022-11-16T05:56:26.345Z,18.88
2022-11-16T05:59:31.286Z,18.73
2022-11-16T06:02:37.216Z,18.60
2022-11-16T06:05:40.936Z,18.42
2022-11-16T06:08:47.298Z,19.75
2022-11-16T06:11:55.921Z,19.50
2022-11-16T06:14:59.399Z,20.00
2022-11-16T06:18:05.759Z,19.10
2022-11-16T06:21:10.048Z,19.85
2022-11-16T06:24:13.682Z,20.60
2022-11-16T06:27:18.451Z,21.00
2022-11-16T06:30:22.647Z,21.30
2022-11-16T06:33:32.188Z,20.77
2022-11-16T06:36:39.093Z,20.80
2022-11-16T06:39:43.173Z,21.52
2022-11-16T06:42:47.000Z,22.08
2022-11-16T06:45:52.850Z,21.87
2022-11-16T06:48:57.940Z,24.30
2022-11-16T06:52:01.716Z,22.08
2022-11-16T06:55:05.755Z,23.55
2022-11-16T06:58:11.132Z,24.58
2022-11-16T07:01:15.296Z,29.87
2022-11-16T07:04:21.321Z,31.60
2022-11-16T07:07:30.164Z,34.30
2022-11-16T07:10:34.272Z,34.83
2022-11-16T07:13:38.859Z,33.40
2022-11-16T07:16:43.248Z,35.03
2022-11-16T07:19:47.458Z,34.40
2022-11-16T07:22:52.189Z,34.22
2022-11-16T07:25:59.417Z,33.00
2022-11-16T07:29:10.821Z,33.35
2022-11-16T07:32:18.892Z,33.43
2022-11-16T07:35:51.177Z,31.80
2022-11-16T07:38:56.141Z,31.65
2022-11-16T07:42:00.514Z,33.17
2022-11-16T07:45:20.008Z,36.53
2022-11-16T07:48:30.373Z,34.47
2022-11-16T07:52:10.327Z,34.03
2022-11-16T07:55:25.752Z,35.22
2022-11-16T07:58:31.739Z,32.97
2022-11-16T08:01:35.958Z,32.45
2022-11-16T08:04:39.510Z,31.07
2022-11-16T08:07:44.335Z,33.03
2022-11-16T08:10:48.425Z,29.55
2022-11-16T08:13:52.091Z,30.60
2022-11-16T08:16:56.681Z,31.90
2022-11-16T08:20:00.275Z,32.13
2022-11-16T08:23:03.756Z,30.67
2022-11-16T08:26:16.548Z,31.95
2022-11-16T08:29:28.816Z,32.60
2022-11-16T08:32:34.260Z,30.85
2022-11-16T08:35:37.884Z,31.27
2022-11-16T08:38:41.576Z,31.63
2022-11-16T08:41:45.691Z,29.30
2022-11-16T08:44:49.762Z,31.13
2022-11-16T08:48:03.413Z,34.10
2022-11-16T08:51:18.125Z,30.03
2022-11-16T08:54:29.906Z,32.17
2022-11-16T08:57:33.929Z,35.15
2022-11-16T09:00:41.789Z,32.28
2022-11-16T09:03:45.765Z,31.60
2022-11-16T09:06:49.366Z,31.97
2022-11-16T09:09:52.863Z,31.13
2022-11-16T09:12:56.468Z,31.15
2022-11-16T09:16:01.100Z,31.63
2022-11-16T09:19:04.714Z,30.10
2022-11-16T09:22:08.620Z,30.37
2022-11-16T09:25:12.070Z,31.93
2022-11-16T09:28:19.735Z,35.22
2022-11-16T09:31:23.948Z,33.30
2022-11-16T09:34:27.768Z,29.92
2022-11-16T09:37:31.298Z,29.20
2022-11-16T09:40:40.757Z,25.30
2022-11-16T09:44:12.919Z,25.30
2022-11-16T09:47:26.825Z,24.95
2022-11-16T09:50:43.452Z,24.80
2022-11-16T09:53:53.482Z,25.13
2022-11-16T09:57:00.532Z,24.53
2022-11-16T10:00:13.986Z,25.38
2022-11-16T10:03:17.620Z,25.85
2022-11-16T10:06:26.421Z,27.02
2022-11-16T10:09:31.717Z,26.77
2022-11-16T10:12:51.775Z,25.73
2022-11-16T10:16:09.828Z,26.08
2022-11-16T10:19:25.196Z,25.65
2022-11-16T10:22:41.241Z,25.98
2022-11-16T10:25:46.479Z,26.33
2022-11-16T10:28:57.593Z,25.80
2022-11-16T10:32:13.113Z,26.77
2022-11-16T10:35:22.794Z,26.90
2022-11-16T10:38:33.211Z,31.63
2022-11-16T10:41:43.693Z,31.03
2022-11-16T10:45:10.050Z,28.97
2022-11-16T10:48:37.317Z,27.52
2022-11-16T10:51:40.822Z,23.75
2022-11-16T10:54:44.652Z,25.38
2022-11-16T10:57:56.700Z,25.63
2022-11-16T11:01:00.371Z,23.93
2022-11-16T11:04:24.958Z,24.10
2022-11-16T11:07:37.883Z,25.63
2022-11-16T11:10:42.584Z,23.67
2022-11-16T11:13:46.364Z,23.20
2022-11-16T11:16:54.142Z,23.67
2022-11-16T11:20:00.626Z,22.75
2022-11-16T11:23:20.671Z,21.52
2022-11-16T11:26:37.230Z,20.95
2022-11-16T11:29:43.079Z,19.23
2022-11-16T11:32:47.841Z,17.20
2022-11-16T11:36:32.608Z,16.83
2022-11-16T11:39:37.594Z,19.65
2022-11-16T11:42:51.332Z,18.17
2022-11-16T11:45:57.886Z,19.43
2022-11-16T11:49:33.290Z,19.77
2022-11-16T11:53:08.327Z,20.83
2022-11-16T11:56:14.612Z,19.48
2022-11-16T11:59:25.182Z,20.98
2022-11-16T12:02:34.377Z,23.57
2022-11-16T12:06:02.365Z,19.77
2022-11-16T12:09:20.495Z,19.15
2022-11-16T12:12:23.995Z,19.55
2022-11-16T12:15:52.146Z,19.73
2022-11-16T12:19:14.600Z,21.03
2022-11-16T12:22:30.196Z,20.63
2022-11-16T12:25:53.877Z,19.83
2022-11-16T12:29:02.968Z,22.48
2022-11-16T12:32:22.962Z,22.40
2022-11-16T12:35:48.883Z,22.73
2022-11-16T12:39:10.737Z,20.63
2022-11-16T12:42:38.467Z,20.92
2022-11-16T12:45:54.490Z,20.55
2022-11-16T12:49:19.418Z,19.98
2022-11-16T12:52:54.952Z,21.93
2022-11-16T12:56:05.240Z,22.30
2022-11-16T12:59:44.373Z,20.10
2022-11-16T13:03:12.527Z,19.70
2022-11-16T13:06:33.913Z,19.58
2022-11-16T13:09:40.820Z,18.70
2022-11-16T13:12:47.494Z,18.43
2022-11-16T13:15:52.089Z,17.60
2022-11-16T13:18:56.656Z,18.45
2022-11-16T13:22:22.955Z,17.73
2022-11-16T13:25:48.950Z,16.63
2022-11-16T13:29:16.484Z,16.80
2022-11-16T13:32:24.994Z,17.65
2022-11-16T13:35:28.652Z,19.05
2022-11-16T13:38:54.115Z,17.17
2022-11-16T13:42:13.123Z,16.40
2022-11-16T13:45:22.868Z,17.03
2022-11-16T13:48:34.629Z,17.23
2022-11-16T13:51:38.669Z,18.15
2022-11-16T13:54:47.077Z,18.48
2022-11-16T13:57:53.293Z,16.87
2022-11-16T14:01:08.907Z,18.20
2022-11-16T14:04:53.948Z,19.45
2022-11-16T14:07:57.280Z,20.05
2022-11-16T14:11:01.458Z,19.60
2022-11-16T14:14:11.607Z,19.73
2022-11-16T14:17:53.018Z,19.90
2022-11-16T14:21:12.250Z,21.60
2022-11-16T14:24:39.315Z,20.40
2022-11-16T14:27:46.105Z,21.30
2022-11-16T14:30:57.391Z,19.43
2022-11-16T14:34:01.989Z,20.33
2022-11-16T14:37:05.898Z,21.75
2022-11-16T14:40:17.245Z,21.30
2022-11-16T14:43:31.607Z,21.33
2022-11-16T14:46:38.176Z,20.40
2022-11-16T14:49:43.314Z,20.47
2022-11-16T14:52:51.141Z,20.08
2022-11-16T14:56:16.366Z,20.67
2022-11-16T14:59:20.425Z,18.88
2022-11-16T15:02:26.763Z,18.07
2022-11-16T15:05:35.657Z,18.23
2022-11-16T15:09:00.899Z,17.88
2022-11-16T15:12:30.317Z,19.73
2022-11-16T15:15:34.247Z,17.80
2022-11-16T15:18:38.060Z,18.07
2022-11-16T15:21:51.995Z,17.10
2022-11-16T15:25:00.432Z,17.33
2022-11-16T15:28:06.309Z,18.33
2022-11-16T15:31:15.010Z,17.25
2022-11-16T15:34:19.907Z,19.43
2022-11-16T15:37:32.210Z,19.03
2022-11-16T15:40:35.946Z,18.67
2022-11-16T15:44:01.494Z,19.80
2022-11-16T15:47:10.458Z,18.00
2022-11-16T15:50:23.236Z,18.13
2022-11-16T15:53:53.627Z,17.40
2022-11-16T15:57:05.729Z,17.33
2022-11-16T16:00:22.989Z,19.85
2022-11-16T16:03:34.706Z,18.83
2022-11-16T16:06:45.620Z,20.33
2022-11-16T16:09:49.308Z,16.63
2022-11-16T16:12:58.060Z,18.35
2022-11-16T16:16:24.183Z,18.48
2022-11-16T16:19:45.377Z,19.40
2022-11-16T16:22:49.142Z,17.13
2022-11-16T16:25:52.449Z,18.87
2022-11-16T16:28:56.034Z,17.73
2022-11-16T16:31:59.465Z,19.08
2022-11-16T16:35:05.896Z,18.48
2022-11-16T16:38:14.018Z,19.87
2022-11-16T16:41:24.307Z,19.40
2022-11-16T16:44:28.059Z,19.65
2022-11-16T16:47:32.101Z,19.27
2022-11-16T16:50:36.150Z,20.48
2022-11-16T16:53:39.694Z,20.70
2022-11-16T16:56:43.194Z,20.60
2022-11-16T16:59:48.373Z,20.73
2022-11-16T17:02:52.037Z,20.00
2022-11-16T17:06:01.244Z,20.83
2022-11-16T17:09:04.934Z,20.63
2022-11-16T17:12:08.704Z,20.27
2022-11-16T17:15:18.015Z,20.30
2022-11-16T17:18:23.709Z,19.33
2022-11-16T17:21:27.264Z,19.42
2022-11-16T17:24:30.755Z,20.10
2022-11-16T17:27:34.201Z,19.50
2022-11-16T17:30:37.717Z,19.02
2022-11-16T17:33:42.627Z,16.83
2022-11-16T17:36:46.099Z,17.58
2022-11-16T17:39:49.441Z,18.70
2022-11-16T17:42:53.004Z,19.40
2022-11-16T17:46:05.617Z,20.63
2022-11-16T17:49:09.197Z,19.80
2022-11-16T17:52:12.900Z,17.42
2022-11-16T17:55:16.653Z,18.83
2022-11-16T17:58:20.056Z,18.13
2022-11-16T18:01:25.423Z,18.00
2022-11-16T18:04:29.207Z,17.55
2022-11-16T18:07:33.612Z,19.70
2022-11-16T18:10:38.350Z,18.77
2022-11-16T18:13:43.449Z,20.37
2022-11-16T18:16:48.019Z,20.08
2022-11-16T18:19:51.581Z,19.60
2022-11-16T18:22:56.352Z,19.27
2022-11-16T18:26:00.070Z,19.67
2022-11-16T18:29:04.459Z,19.87
2022-11-16T18:32:09.527Z,19.75
2022-11-16T18:35:13.131Z,20.80
2022-11-16T18:38:17.931Z,18.98
2022-11-16T18:41:23.996Z,18.80
2022-11-16T18:44:27.783Z,20.30
2022-11-16T18:47:31.588Z,19.75
2022-11-16T18:50:35.269Z,20.08
2022-11-16T18:53:38.833Z,18.58
2022-11-16T18:56:42.597Z,19.77
2022-11-16T18:59:46.032Z,19.23
2022-11-16T19:02:49.644Z,20.08
2022-11-16T19:06:01.732Z,19.67
2022-11-16T19:09:09.634Z,20.35
2022-11-16T19:12:13.174Z,18.87
2022-11-16T19:15:16.929Z,18.80
2022-11-16T19:18:22.030Z,20.13
2022-11-16T19:21:26.401Z,19.42
2022-11-16T19:24:30.228Z,19.40
2022-11-16T19:27:34.092Z,19.27
2022-11-16T19:30:37.827Z,20.67
2022-11-16T19:33:42.218Z,19.17
2022-11-16T19:36:45.920Z,19.92
2022-11-16T19:39:49.602Z,18.98
2022-11-16T19:42:54.009Z,19.57
2022-11-16T19:46:12.115Z,18.83
2022-11-16T19:49:20.107Z,20.27
2022-11-16T19:52:23.922Z,19.10
2022-11-16T19:55:28.578Z,19.48
2022-11-16T19:58:34.638Z,19.43
2022-11-16T20:01:38.293Z,20.37
2022-11-16T20:04:41.684Z,20.63
2022-11-16T20:07:45.265Z,20.10
2022-11-16T20:10:48.600Z,20.05
2022-11-16T20:13:53.971Z,20.23
2022-11-16T20:16:59.037Z,19.53
2022-11-16T20:20:02.721Z,19.30
2022-11-16T20:23:06.378Z,19.70
2022-11-16T20:26:10.931Z,18.98
2022-11-16T20:29:16.876Z,21.23
2022-11-16T20:32:20.518Z,20.20
2022-11-16T20:35:23.910Z,20.13
2022-11-16T20:38:27.503Z,21.05
2022-11-16T20:41:33.279Z,20.80
2022-11-16T20:44:36.649Z,20.30
2022-11-16T20:47:40.329Z,21.57
2022-11-16T20:50:45.556Z,19.30
2022-11-16T20:53:50.408Z,20.42
2022-11-16T20:56:54.106Z,19.42
2022-11-16T20:59:57.483Z,18.67
2022-11-16T21:03:01.006Z,19.70
2022-11-16T21:06:04.902Z,20.90
2022-11-16T21:09:10.873Z,19.80
2022-11-16T21:12:32.735Z,17.48
2022-11-16T21:15:36.204Z,19.37
2022-11-16T21:18:40.437Z,17.87
2022-11-16T21:21:43.862Z,19.83
2022-11-16T21:24:47.172Z,18.17
2022-11-16T21:27:50.705Z,17.75
2022-11-16T21:30:57.027Z,15.33
2022-11-16T21:34:01.397Z,16.70
2022-11-16T21:37:04.712Z,17.65
2022-11-16T21:40:08.757Z,16.98
2022-11-16T21:43:12.271Z,17.10
2022-11-16T21:46:17.980Z,16.73
2022-11-16T21:49:21.319Z,20.60
2022-11-16T21:52:24.652Z,17.23
2022-11-16T21:55:28.282Z,17.52
2022-11-16T21:58:31.641Z,17.38
2022-11-16T22:01:55.007Z,15.07
2022-11-16T22:05:16.998Z,15.50
2022-11-16T22:08:20.289Z,17.52
2022-11-16T22:11:23.996Z,19.13
2022-11-16T22:14:27.356Z,17.98
2022-11-16T22:17:30.700Z,16.50
2022-11-16T22:20:34.082Z,14.60
2022-11-16T22:23:38.280Z,16.40
2022-11-16T22:26:41.983Z,16.58
2022-11-16T22:29:45.715Z,15.52
2022-11-16T22:32:49.049Z,14.43
2022-11-16T22:35:52.334Z,14.40
2022-11-16T22:38:57.154Z,13.73
2022-11-16T22:42:00.468Z,14.18
2022-11-16T22:45:03.926Z,13.43
2022-11-16T22:48:07.275Z,12.40
2022-11-16T22:51:20.194Z,12.87
2022-11-16T22:54:28.448Z,13.25
2022-11-16T22:57:32.215Z,13.52
2022-11-16T23:00:40.605Z,14.73
2022-11-16T23:03:44.569Z,14.53
2022-11-16T23:06:47.964Z,14.07
2022-11-16T23:09:51.227Z,14.60
2022-11-16T23:13:13.106Z,15.55
2022-11-16T23:16:16.405Z,15.07
2022-11-16T23:19:40.016Z,16.00
2022-11-16T23:23:01.812Z,15.87
2022-11-16T23:26:30.298Z,14.75
2022-11-16T23:29:33.591Z,15.40
2022-11-16T23:32:36.981Z,16.05
2022-11-16T23:35:40.269Z,14.83
2022-11-16T23:38:43.827Z,15.10
2022-11-16T23:42:05.586Z,14.35
2022-11-16T23:45:09.223Z,15.60
2022-11-16T23:48:14.464Z,15.88
2022-11-16T23:51:19.392Z,16.67
2022-11-16T23:54:22.744Z,16.00
2022-11-16T23:57:26.107Z,15.23
